map of KVBT home
KVBT - Airport
Location
City:  Bentonville, Arkansas, United States
Name:Bentonville Municipal/Louise M Thaden Field
ICAO:KVBT
FAA LID:VBT

Details
Type:Airport (Airfield)
Use:Public/Civil
Latitude:3620'43"N (36.345250)
Longitude:9413'10"W (-94.219332)
Datum:WGS 1984
Elevation:1298 ft (396 m)
Variation:1.64E (WMM2015 magnetic declination)
-0.10 annual change
Runways:1
Longest:4426 × 65 ft (1349 × 20 m), paved

Time
Time Zone:UTC-6 (DST-5)
Local Time:

Weather
METAR:KVBT 072355Z AUTO 02012KT 10SM OVC044 02/M09 A3027 RMK AO1 10020 20010 400301020 52024

Related Locations
Nearby:
Farthest:MQZ: 10781 mi / 17351 km
Margaret River [Margaret River Airport], WA, AU

Find:

   beyond  
but within

Other Information
Maps:
NOTAMs:
Links:
Sources:

  
flag of United States
flag of Arkansas
  

Sectional Chart

Flight Planning
at skyvector.com

Satellite Image

Google Maps Satellite view

 

Copyright © 2004-2016 Karl L. Swartz. All rights reserved.
The Great Circle Mapper name and logo are trademarks of the Great Circle Mapper.
All other trademarks mentioned herein belong to their respective owners.
Please see credits for attibutions and further copyright information.

  Follow gcmap on Facebook Follow gcmap on Twitter Follow gcmap on Google+ GCmap on LinkedIn

hCard Microformat

Geo Microformat